createdAt,value
2022-08-07T00:03:28.312Z,15.20
2022-08-07T00:13:58.488Z,15.06
2022-08-07T00:24:20.960Z,14.67
2022-08-07T00:34:49.180Z,14.86
2022-08-07T00:45:16.130Z,14.92
2022-08-07T00:56:00.797Z,14.61
2022-08-07T01:06:21.945Z,14.27
2022-08-07T01:16:47.345Z,14.49
2022-08-07T01:27:19.528Z,14.32
2022-08-07T01:37:41.937Z,14.17
2022-08-07T01:48:19.303Z,14.20
2022-08-07T01:58:54.720Z,13.95
2022-08-07T02:09:33.526Z,13.56
2022-08-07T02:20:10.044Z,13.91
2022-08-07T02:30:40.722Z,13.95
2022-08-07T02:41:04.313Z,13.81
2022-08-07T02:51:49.773Z,13.68
2022-08-07T03:02:13.197Z,13.86
2022-08-07T03:12:37.352Z,13.64
2022-08-07T03:22:59.696Z,13.49
2022-08-07T03:33:21.322Z,12.94
2022-08-07T03:43:56.752Z,13.47
2022-08-07T03:54:35.488Z,13.33
2022-08-07T04:05:00.856Z,12.98
2022-08-07T04:15:23.964Z,13.36
2022-08-07T04:25:46.278Z,13.26
2022-08-07T04:36:10.961Z,13.38
2022-08-07T04:46:39.977Z,13.47
2022-08-07T04:58:26.182Z,13.69
2022-08-07T05:08:45.766Z,13.94
2022-08-07T05:19:13.244Z,13.97
2022-08-07T05:29:50.994Z,14.27
2022-08-07T05:40:18.702Z,14.50
2022-08-07T05:50:42.961Z,14.83
2022-08-07T06:01:11.104Z,15.47
2022-08-07T06:11:34.490Z,15.75
2022-08-07T06:22:11.725Z,16.00
2022-08-07T06:32:38.073Z,16.26
2022-08-07T06:43:03.861Z,16.60
2022-08-07T06:55:28.226Z,17.17
2022-08-07T07:04:32.037Z,17.41
2022-08-07T07:15:03.869Z,17.59
2022-08-07T07:26:34.226Z,17.82
2022-08-07T07:36:13.476Z,17.99
2022-08-07T07:46:54.421Z,18.35
2022-08-07T07:57:43.719Z,18.53
2022-08-07T08:08:03.819Z,18.69
2022-08-07T08:18:27.599Z,18.77
2022-08-07T08:28:51.877Z,19.18
2022-08-07T08:39:15.461Z,19.08
2022-08-07T08:50:02.637Z,19.40
2022-08-07T09:00:30.314Z,19.86
2022-08-07T09:11:24.673Z,19.74
2022-08-07T09:22:39.399Z,19.80
2022-08-07T09:32:53.792Z,20.31
2022-08-07T09:44:03.092Z,20.44
2022-08-07T09:54:27.196Z,20.56
2022-08-07T10:05:12.601Z,21.03
2022-08-07T10:15:57.371Z,21.43
2022-08-07T10:26:52.978Z,21.21
2022-08-07T10:37:59.960Z,21.20
2022-08-07T10:48:25.085Z,22.53
2022-08-07T10:59:13.618Z,21.82
2022-08-07T11:10:07.358Z,21.40
2022-08-07T11:20:43.602Z,22.59
2022-08-07T11:31:38.905Z,23.71
2022-08-07T11:42:18.615Z,23.46
2022-08-07T11:53:04.989Z,23.41
2022-08-07T12:03:44.588Z,23.61
2022-08-07T12:14:19.142Z,22.98
2022-08-07T12:26:06.082Z,23.15
2022-08-07T12:36:05.693Z,22.51
2022-08-07T12:46:40.800Z,23.21
2022-08-07T12:57:09.604Z,23.16
2022-08-07T13:08:12.494Z,23.27
2022-08-07T13:18:49.157Z,22.90
2022-08-07T13:29:21.698Z,22.91
2022-08-07T13:40:35.883Z,22.75
2022-08-07T13:50:45.319Z,22.92
2022-08-07T14:01:20.390Z,22.91
2022-08-07T14:11:53.505Z,22.94
2022-08-07T14:22:34.692Z,22.59
2022-08-07T14:33:00.017Z,23.01
2022-08-07T14:43:57.987Z,22.82
2022-08-07T14:54:31.210Z,22.63
2022-08-07T15:04:52.952Z,22.66
2022-08-07T15:15:23.580Z,23.36
2022-08-07T15:25:47.014Z,23.07
2022-08-07T15:36:11.637Z,23.47
2022-08-07T15:46:39.173Z,23.47
2022-08-07T15:57:40.270Z,23.00
2022-08-07T16:08:30.695Z,22.95
2022-08-07T16:19:12.282Z,23.38
2022-08-07T16:30:11.167Z,23.88
2022-08-07T16:41:07.003Z,23.79
2022-08-07T16:52:52.110Z,23.84
2022-08-07T17:03:57.754Z,23.96
2022-08-07T17:14:41.887Z,23.16
2022-08-07T17:25:15.090Z,23.10
2022-08-07T17:35:54.767Z,22.94
2022-08-07T17:46:22.727Z,22.98
2022-08-07T17:57:18.826Z,22.75
2022-08-07T18:07:44.933Z,22.38
2022-08-07T18:18:46.372Z,21.93
2022-08-07T18:30:05.929Z,21.68
2022-08-07T18:40:08.173Z,21.29
2022-08-07T18:50:44.123Z,20.83
2022-08-07T19:02:16.992Z,20.75
2022-08-07T19:12:53.668Z,20.62
2022-08-07T19:23:58.178Z,20.37
2022-08-07T19:34:33.958Z,20.07
2022-08-07T19:45:08.698Z,19.85
2022-08-07T19:55:57.574Z,19.68
2022-08-07T20:06:15.435Z,19.61
2022-08-07T20:16:54.315Z,19.60
2022-08-07T20:27:46.066Z,19.36
2022-08-07T20:38:06.378Z,19.31
2022-08-07T20:48:30.891Z,18.93
2022-08-07T20:59:01.418Z,18.85
2022-08-07T21:09:28.601Z,18.68
2022-08-07T21:20:04.869Z,18.72
2022-08-07T21:30:56.790Z,18.57
2022-08-07T21:41:24.532Z,18.46
2022-08-07T21:52:16.679Z,18.32
2022-08-07T22:02:53.987Z,18.23
2022-08-07T22:13:16.584Z,18.07
2022-08-07T22:24:00.161Z,17.91
2022-08-07T22:34:35.491Z,17.53
2022-08-07T22:45:02.478Z,17.48
2022-08-07T22:55:36.764Z,17.44
2022-08-07T23:06:23.876Z,17.39
2022-08-07T23:16:54.971Z,17.35
2022-08-07T23:28:22.142Z,17.21
2022-08-07T23:38:55.778Z,16.95
2022-08-07T23:49:42.201Z,17.18
